sensor_id;sensor_type;location;lat;lon;timestamp;P1;durP1;ratioP1;P2;durP2;ratioP2
71083;SDS011;58741;52.672;13.548;2023-03-04T00:00:55;17.80;;;6.55;;
71083;SDS011;58741;52.672;13.548;2023-03-04T00:03:21;12.05;;;5.57;;
71083;SDS011;58741;52.672;13.548;2023-03-04T00:05:47;13.68;;;6.25;;
71083;SDS011;58741;52.672;13.548;2023-03-04T00:08:13;13.95;;;6.85;;
71083;SDS011;58741;52.672;13.548;2023-03-04T00:10:38;22.10;;;6.88;;
71083;SDS011;58741;52.672;13.548;2023-03-04T00:13:04;9.65;;;5.28;;
71083;SDS011;58741;52.672;13.548;2023-03-04T00:15:29;15.75;;;6.28;;
71083;SDS011;58741;52.672;13.548;2023-03-04T00:17:55;9.30;;;5.57;;
71083;SDS011;58741;52.672;13.548;2023-03-04T00:20:21;16.73;;;6.35;;
71083;SDS011;58741;52.672;13.548;2023-03-04T00:22:46;10.82;;;5.00;;
71083;SDS011;58741;52.672;13.548;2023-03-04T00:25:12;22.85;;;6.53;;
71083;SDS011;58741;52.672;13.548;2023-03-04T00:27:37;12.55;;;6.55;;
71083;SDS011;58741;52.672;13.548;2023-03-04T00:30:04;13.32;;;7.63;;
71083;SDS011;58741;52.672;13.548;2023-03-04T00:32:30;16.13;;;6.13;;
71083;SDS011;58741;52.672;13.548;2023-03-04T00:34:55;14.75;;;5.85;;
71083;SDS011;58741;52.672;13.548;2023-03-04T00:37:21;9.35;;;5.72;;
71083;SDS011;58741;52.672;13.548;2023-03-04T00:39:48;12.85;;;6.13;;
71083;SDS011;58741;52.672;13.548;2023-03-04T00:42:14;19.27;;;6.45;;
71083;SDS011;58741;52.672;13.548;2023-03-04T00:44:39;15.07;;;5.88;;
71083;SDS011;58741;52.672;13.548;2023-03-04T00:47:05;8.52;;;5.20;;
71083;SDS011;58741;52.672;13.548;2023-03-04T00:49:31;13.00;;;6.15;;
71083;SDS011;58741;52.672;13.548;2023-03-04T00:51:57;12.75;;;4.20;;
71083;SDS011;58741;52.672;13.548;2023-03-04T00:54:22;12.55;;;4.50;;
71083;SDS011;58741;52.672;13.548;2023-03-04T00:56:48;12.45;;;5.47;;
71083;SDS011;58741;52.672;13.548;2023-03-04T00:59:13;12.48;;;5.68;;
71083;SDS011;58741;52.672;13.548;2023-03-04T01:01:39;8.45;;;5.10;;
71083;SDS011;58741;52.672;13.548;2023-03-04T01:04:05;12.65;;;5.72;;
71083;SDS011;58741;52.672;13.548;2023-03-04T01:06:31;13.02;;;4.43;;
71083;SDS011;58741;52.672;13.548;2023-03-04T01:08:57;12.05;;;5.25;;
71083;SDS011;58741;52.672;13.548;2023-03-04T01:11:22;8.27;;;4.53;;
71083;SDS011;58741;52.672;13.548;2023-03-04T01:13:48;8.70;;;4.60;;
71083;SDS011;58741;52.672;13.548;2023-03-04T01:16:14;11.98;;;5.35;;
71083;SDS011;58741;52.672;13.548;2023-03-04T01:18:39;7.85;;;3.97;;
71083;SDS011;58741;52.672;13.548;2023-03-04T01:21:05;11.27;;;4.25;;
71083;SDS011;58741;52.672;13.548;2023-03-04T01:23:30;10.15;;;4.97;;
71083;SDS011;58741;52.672;13.548;2023-03-04T01:25:56;9.20;;;4.82;;
71083;SDS011;58741;52.672;13.548;2023-03-04T01:28:23;9.13;;;4.00;;
71083;SDS011;58741;52.672;13.548;2023-03-04T01:30:49;12.15;;;5.18;;
71083;SDS011;58741;52.672;13.548;2023-03-04T01:33:15;8.68;;;4.10;;
71083;SDS011;58741;52.672;13.548;2023-03-04T01:35:40;14.95;;;4.05;;
71083;SDS011;58741;52.672;13.548;2023-03-04T01:38:06;5.65;;;3.28;;
71083;SDS011;58741;52.672;13.548;2023-03-04T01:40:32;5.97;;;3.42;;
71083;SDS011;58741;52.672;13.548;2023-03-04T01:42:57;4.82;;;2.97;;
71083;SDS011;58741;52.672;13.548;2023-03-04T01:45:23;10.45;;;3.15;;
71083;SDS011;58741;52.672;13.548;2023-03-04T01:47:49;10.55;;;2.75;;
71083;SDS011;58741;52.672;13.548;2023-03-04T01:50:34;4.57;;;2.50;;
71083;SDS011;58741;52.672;13.548;2023-03-04T01:53:00;5.53;;;2.85;;
71083;SDS011;58741;52.672;13.548;2023-03-04T01:55:27;6.28;;;2.80;;
71083;SDS011;58741;52.672;13.548;2023-03-04T01:57:54;9.23;;;3.00;;
71083;SDS011;58741;52.672;13.548;2023-03-04T02:00:28;6.63;;;3.03;;
71083;SDS011;58741;52.672;13.548;2023-03-04T02:03:01;9.20;;;2.25;;
71083;SDS011;58741;52.672;13.548;2023-03-04T02:05:32;4.88;;;2.72;;
71083;SDS011;58741;52.672;13.548;2023-03-04T02:07:59;8.25;;;3.00;;
71083;SDS011;58741;52.672;13.548;2023-03-04T02:10:26;8.00;;;2.85;;
71083;SDS011;58741;52.672;13.548;2023-03-04T02:12:52;8.55;;;3.60;;
71083;SDS011;58741;52.672;13.548;2023-03-04T02:15:18;4.43;;;2.33;;
71083;SDS011;58741;52.672;13.548;2023-03-04T02:17:44;8.18;;;3.25;;
71083;SDS011;58741;52.672;13.548;2023-03-04T02:25:36;7.50;;;1.88;;
71083;SDS011;58741;52.672;13.548;2023-03-04T02:28:07;8.23;;;2.88;;
71083;SDS011;58741;52.672;13.548;2023-03-04T02:30:33;7.40;;;2.85;;
71083;SDS011;58741;52.672;13.548;2023-03-04T02:32:59;4.75;;;2.03;;
71083;SDS011;58741;52.672;13.548;2023-03-04T02:35:25;5.93;;;2.53;;
71083;SDS011;58741;52.672;13.548;2023-03-04T02:37:50;9.05;;;2.20;;
71083;SDS011;58741;52.672;13.548;2023-03-04T02:40:29;6.72;;;2.80;;
71083;SDS011;58741;52.672;13.548;2023-03-04T02:42:58;4.28;;;2.72;;
71083;SDS011;58741;52.672;13.548;2023-03-04T02:45:35;17.27;;;4.43;;
71083;SDS011;58741;52.672;13.548;2023-03-04T02:48:07;5.80;;;2.42;;
71083;SDS011;58741;52.672;13.548;2023-03-04T02:50:38;4.78;;;2.38;;
71083;SDS011;58741;52.672;13.548;2023-03-04T02:53:06;12.90;;;3.33;;
71083;SDS011;58741;52.672;13.548;2023-03-04T02:55:32;6.93;;;2.80;;
71083;SDS011;58741;52.672;13.548;2023-03-04T02:57:58;5.50;;;2.70;;
71083;SDS011;58741;52.672;13.548;2023-03-04T03:00:25;3.10;;;1.92;;
71083;SDS011;58741;52.672;13.548;2023-03-04T03:02:51;10.57;;;3.25;;
71083;SDS011;58741;52.672;13.548;2023-03-04T03:05:17;5.13;;;2.13;;
71083;SDS011;58741;52.672;13.548;2023-03-04T03:07:43;9.45;;;4.00;;
71083;SDS011;58741;52.672;13.548;2023-03-04T03:10:10;19.17;;;3.10;;
71083;SDS011;58741;52.672;13.548;2023-03-04T03:12:35;7.43;;;3.45;;
71083;SDS011;58741;52.672;13.548;2023-03-04T03:15:03;5.10;;;1.55;;
71083;SDS011;58741;52.672;13.548;2023-03-04T03:17:29;2.03;;;1.48;;
71083;SDS011;58741;52.672;13.548;2023-03-04T03:19:54;3.33;;;1.85;;
71083;SDS011;58741;52.672;13.548;2023-03-04T03:22:20;9.55;;;2.30;;
71083;SDS011;58741;52.672;13.548;2023-03-04T03:24:46;5.07;;;2.55;;
71083;SDS011;58741;52.672;13.548;2023-03-04T03:27:11;21.95;;;3.65;;
71083;SDS011;58741;52.672;13.548;2023-03-04T03:29:37;3.08;;;2.05;;
71083;SDS011;58741;52.672;13.548;2023-03-04T03:32:06;3.53;;;1.80;;
71083;SDS011;58741;52.672;13.548;2023-03-04T03:34:31;3.50;;;1.80;;
71083;SDS011;58741;52.672;13.548;2023-03-04T03:36:57;3.95;;;1.65;;
71083;SDS011;58741;52.672;13.548;2023-03-04T03:39:23;5.85;;;2.00;;
71083;SDS011;58741;52.672;13.548;2023-03-04T03:41:48;2.90;;;1.95;;
71083;SDS011;58741;52.672;13.548;2023-03-04T03:44:14;6.20;;;2.15;;
71083;SDS011;58741;52.672;13.548;2023-03-04T03:46:40;5.55;;;2.38;;
71083;SDS011;58741;52.672;13.548;2023-03-04T03:49:05;10.40;;;3.33;;
71083;SDS011;58741;52.672;13.548;2023-03-04T03:51:31;4.32;;;2.22;;
71083;SDS011;58741;52.672;13.548;2023-03-04T03:53:56;4.60;;;2.15;;
71083;SDS011;58741;52.672;13.548;2023-03-04T03:56:22;10.40;;;2.42;;
71083;SDS011;58741;52.672;13.548;2023-03-04T03:58:48;8.48;;;2.00;;
71083;SDS011;58741;52.672;13.548;2023-03-04T04:01:13;5.80;;;2.35;;
71083;SDS011;58741;52.672;13.548;2023-03-04T04:03:39;4.10;;;1.90;;
71083;SDS011;58741;52.672;13.548;2023-03-04T04:06:04;5.82;;;1.85;;
71083;SDS011;58741;52.672;13.548;2023-03-04T04:08:30;2.95;;;1.67;;
71083;SDS011;58741;52.672;13.548;2023-03-04T04:10:57;3.30;;;1.73;;
71083;SDS011;58741;52.672;13.548;2023-03-04T04:13:23;2.63;;;1.85;;
71083;SDS011;58741;52.672;13.548;2023-03-04T04:15:50;5.03;;;1.92;;
71083;SDS011;58741;52.672;13.548;2023-03-04T04:18:16;2.85;;;1.60;;
71083;SDS011;58741;52.672;13.548;2023-03-04T04:20:42;2.83;;;1.90;;
71083;SDS011;58741;52.672;13.548;2023-03-04T04:23:07;4.72;;;1.48;;
71083;SDS011;58741;52.672;13.548;2023-03-04T04:25:33;1.23;;;1.10;;
71083;SDS011;58741;52.672;13.548;2023-03-04T04:27:58;4.82;;;1.90;;
71083;SDS011;58741;52.672;13.548;2023-03-04T04:30:24;2.58;;;1.52;;
71083;SDS011;58741;52.672;13.548;2023-03-04T04:32:50;5.93;;;1.83;;
71083;SDS011;58741;52.672;13.548;2023-03-04T04:35:15;4.82;;;2.10;;
71083;SDS011;58741;52.672;13.548;2023-03-04T04:37:41;4.82;;;1.88;;
71083;SDS011;58741;52.672;13.548;2023-03-04T04:40:07;6.13;;;2.15;;
71083;SDS011;58741;52.672;13.548;2023-03-04T04:42:33;2.22;;;1.40;;
71083;SDS011;58741;52.672;13.548;2023-03-04T04:44:58;5.72;;;2.30;;
71083;SDS011;58741;52.672;13.548;2023-03-04T04:47:24;3.92;;;1.55;;
71083;SDS011;58741;52.672;13.548;2023-03-04T04:49:50;8.00;;;2.20;;
71083;SDS011;58741;52.672;13.548;2023-03-04T04:54:33;5.25;;;2.03;;
71083;SDS011;58741;52.672;13.548;2023-03-04T04:56:59;1.55;;;1.27;;
71083;SDS011;58741;52.672;13.548;2023-03-04T04:59:24;5.60;;;1.95;;
71083;SDS011;58741;52.672;13.548;2023-03-04T05:01:50;3.70;;;1.75;;
71083;SDS011;58741;52.672;13.548;2023-03-04T05:04:15;3.15;;;1.65;;
71083;SDS011;58741;52.672;13.548;2023-03-04T05:06:41;1.75;;;1.15;;
71083;SDS011;58741;52.672;13.548;2023-03-04T05:09:06;2.78;;;0.98;;
71083;SDS011;58741;52.672;13.548;2023-03-04T05:11:32;4.45;;;1.10;;
71083;SDS011;58741;52.672;13.548;2023-03-04T05:13:58;3.50;;;1.75;;
71083;SDS011;58741;52.672;13.548;2023-03-04T05:16:24;3.78;;;1.73;;
71083;SDS011;58741;52.672;13.548;2023-03-04T05:18:49;2.92;;;0.95;;
71083;SDS011;58741;52.672;13.548;2023-03-04T05:21:15;3.80;;;1.15;;
71083;SDS011;58741;52.672;13.548;2023-03-04T05:23:41;3.40;;;1.50;;
71083;SDS011;58741;52.672;13.548;2023-03-04T05:26:08;4.00;;;1.77;;
71083;SDS011;58741;52.672;13.548;2023-03-04T05:28:36;1.25;;;0.98;;
71083;SDS011;58741;52.672;13.548;2023-03-04T05:31:02;2.15;;;0.75;;
71083;SDS011;58741;52.672;13.548;2023-03-04T05:33:28;0.90;;;0.60;;
71083;SDS011;58741;52.672;13.548;2023-03-04T05:35:54;4.60;;;1.00;;
71083;SDS011;58741;52.672;13.548;2023-03-04T05:38:20;2.28;;;1.10;;
71083;SDS011;58741;52.672;13.548;2023-03-04T05:40:46;3.17;;;0.80;;
71083;SDS011;58741;52.672;13.548;2023-03-04T05:43:13;4.00;;;1.52;;
71083;SDS011;58741;52.672;13.548;2023-03-04T05:45:39;4.30;;;1.35;;
71083;SDS011;58741;52.672;13.548;2023-03-04T05:48:05;1.55;;;0.68;;
71083;SDS011;58741;52.672;13.548;2023-03-04T05:50:31;4.22;;;1.30;;
71083;SDS011;58741;52.672;13.548;2023-03-04T05:52:58;1.50;;;1.20;;
71083;SDS011;58741;52.672;13.548;2023-03-04T05:55:23;2.58;;;1.23;;
71083;SDS011;58741;52.672;13.548;2023-03-04T05:57:51;1.52;;;1.08;;
71083;SDS011;58741;52.672;13.548;2023-03-04T06:00:17;3.83;;;1.15;;
71083;SDS011;58741;52.672;13.548;2023-03-04T06:02:43;1.65;;;0.80;;
71083;SDS011;58741;52.672;13.548;2023-03-04T06:05:10;1.58;;;0.85;;
71083;SDS011;58741;52.672;13.548;2023-03-04T06:07:37;4.57;;;1.65;;
71083;SDS011;58741;52.672;13.548;2023-03-04T06:10:02;1.05;;;0.90;;
71083;SDS011;58741;52.672;13.548;2023-03-04T06:12:29;3.13;;;0.98;;
71083;SDS011;58741;52.672;13.548;2023-03-04T06:14:54;2.25;;;0.85;;
71083;SDS011;58741;52.672;13.548;2023-03-04T06:17:20;2.13;;;1.40;;
71083;SDS011;58741;52.672;13.548;2023-03-04T06:19:45;3.45;;;1.17;;
71083;SDS011;58741;52.672;13.548;2023-03-04T06:22:11;2.63;;;1.00;;
71083;SDS011;58741;52.672;13.548;2023-03-04T06:24:37;3.30;;;1.45;;
71083;SDS011;58741;52.672;13.548;2023-03-04T06:27:02;2.75;;;1.10;;
71083;SDS011;58741;52.672;13.548;2023-03-04T06:29:28;3.13;;;0.85;;
71083;SDS011;58741;52.672;13.548;2023-03-04T06:31:53;0.65;;;0.65;;
71083;SDS011;58741;52.672;13.548;2023-03-04T06:34:19;2.28;;;0.80;;
71083;SDS011;58741;52.672;13.548;2023-03-04T06:36:45;3.33;;;2.38;;
71083;SDS011;58741;52.672;13.548;2023-03-04T06:39:11;2.85;;;1.35;;
71083;SDS011;58741;52.672;13.548;2023-03-04T06:41:36;2.22;;;1.02;;
71083;SDS011;58741;52.672;13.548;2023-03-04T06:44:03;4.03;;;1.35;;
71083;SDS011;58741;52.672;13.548;2023-03-04T06:46:28;1.38;;;0.88;;
71083;SDS011;58741;52.672;13.548;2023-03-04T06:48:55;2.83;;;0.85;;
71083;SDS011;58741;52.672;13.548;2023-03-04T06:51:20;2.28;;;1.05;;
71083;SDS011;58741;52.672;13.548;2023-03-04T06:53:46;1.55;;;0.60;;
71083;SDS011;58741;52.672;13.548;2023-03-04T06:56:12;1.80;;;0.95;;
71083;SDS011;58741;52.672;13.548;2023-03-04T06:58:45;2.95;;;0.85;;
71083;SDS011;58741;52.672;13.548;2023-03-04T07:01:21;5.22;;;0.93;;
71083;SDS011;58741;52.672;13.548;2023-03-04T07:03:50;2.85;;;1.40;;
71083;SDS011;58741;52.672;13.548;2023-03-04T07:06:18;2.25;;;1.60;;
71083;SDS011;58741;52.672;13.548;2023-03-04T07:08:45;1.08;;;0.98;;
71083;SDS011;58741;52.672;13.548;2023-03-04T07:11:12;1.05;;;0.95;;
71083;SDS011;58741;52.672;13.548;2023-03-04T07:13:38;0.77;;;0.68;;
71083;SDS011;58741;52.672;13.548;2023-03-04T07:16:08;2.53;;;1.00;;
71083;SDS011;58741;52.672;13.548;2023-03-04T07:18:35;2.83;;;0.88;;
71083;SDS011;58741;52.672;13.548;2023-03-04T07:21:01;1.17;;;1.08;;
71083;SDS011;58741;52.672;13.548;2023-03-04T07:23:27;1.00;;;0.63;;
71083;SDS011;58741;52.672;13.548;2023-03-04T07:25:52;2.10;;;1.15;;
71083;SDS011;58741;52.672;13.548;2023-03-04T07:28:19;2.65;;;1.08;;
71083;SDS011;58741;52.672;13.548;2023-03-04T07:30:44;4.22;;;0.80;;
71083;SDS011;58741;52.672;13.548;2023-03-04T07:33:10;1.25;;;0.52;;
71083;SDS011;58741;52.672;13.548;2023-03-04T07:35:36;1.15;;;0.75;;
71083;SDS011;58741;52.672;13.548;2023-03-04T07:38:02;2.05;;;0.80;;
71083;SDS011;58741;52.672;13.548;2023-03-04T07:40:28;2.38;;;0.68;;
71083;SDS011;58741;52.672;13.548;2023-03-04T07:42:54;2.53;;;0.73;;
71083;SDS011;58741;52.672;13.548;2023-03-04T07:45:20;2.67;;;1.10;;
71083;SDS011;58741;52.672;13.548;2023-03-04T07:47:47;1.75;;;0.75;;
71083;SDS011;58741;52.672;13.548;2023-03-04T07:50:13;0.98;;;0.77;;
71083;SDS011;58741;52.672;13.548;2023-03-04T07:52:40;0.65;;;0.63;;
71083;SDS011;58741;52.672;13.548;2023-03-04T07:55:07;1.85;;;0.90;;
71083;SDS011;58741;52.672;13.548;2023-03-04T07:57:33;1.58;;;0.80;;
71083;SDS011;58741;52.672;13.548;2023-03-04T07:59:59;1.55;;;0.75;;
71083;SDS011;58741;52.672;13.548;2023-03-04T08:02:25;2.05;;;0.82;;
71083;SDS011;58741;52.672;13.548;2023-03-04T08:04:50;1.67;;;0.82;;
71083;SDS011;58741;52.672;13.548;2023-03-04T08:07:16;1.67;;;0.77;;
71083;SDS011;58741;52.672;13.548;2023-03-04T08:09:41;1.08;;;0.98;;
71083;SDS011;58741;52.672;13.548;2023-03-04T08:12:08;1.30;;;0.68;;
71083;SDS011;58741;52.672;13.548;2023-03-04T08:14:33;0.73;;;0.50;;
71083;SDS011;58741;52.672;13.548;2023-03-04T08:17:00;2.92;;;0.90;;
71083;SDS011;58741;52.672;13.548;2023-03-04T08:19:25;2.45;;;0.73;;
71083;SDS011;58741;52.672;13.548;2023-03-04T08:21:51;0.68;;;0.68;;
71083;SDS011;58741;52.672;13.548;2023-03-04T08:24:17;1.13;;;0.63;;
71083;SDS011;58741;52.672;13.548;2023-03-04T08:26:44;1.50;;;0.70;;
71083;SDS011;58741;52.672;13.548;2023-03-04T08:29:13;0.60;;;0.60;;
71083;SDS011;58741;52.672;13.548;2023-03-04T08:31:41;2.47;;;0.65;;
71083;SDS011;58741;52.672;13.548;2023-03-04T08:34:10;2.13;;;0.70;;
71083;SDS011;58741;52.672;13.548;2023-03-04T08:36:38;0.90;;;0.57;;
71083;SDS011;58741;52.672;13.548;2023-03-04T08:39:06;1.35;;;0.70;;
71083;SDS011;58741;52.672;13.548;2023-03-04T08:41:32;1.35;;;0.77;;
71083;SDS011;58741;52.672;13.548;2023-03-04T08:43:59;1.98;;;1.45;;
71083;SDS011;58741;52.672;13.548;2023-03-04T08:46:25;0.95;;;0.70;;
71083;SDS011;58741;52.672;13.548;2023-03-04T08:48:50;0.52;;;0.50;;
71083;SDS011;58741;52.672;13.548;2023-03-04T08:51:16;0.88;;;0.65;;
71083;SDS011;58741;52.672;13.548;2023-03-04T08:53:42;0.73;;;0.35;;
71083;SDS011;58741;52.672;13.548;2023-03-04T08:56:08;3.20;;;0.63;;
71083;SDS011;58741;52.672;13.548;2023-03-04T08:58:35;0.95;;;0.70;;
71083;SDS011;58741;52.672;13.548;2023-03-04T09:01:01;3.58;;;1.23;;
71083;SDS011;58741;52.672;13.548;2023-03-04T09:03:28;1.35;;;1.25;;
71083;SDS011;58741;52.672;13.548;2023-03-04T09:05:53;3.55;;;1.52;;
71083;SDS011;58741;52.672;13.548;2023-03-04T09:08:19;0.85;;;0.80;;
71083;SDS011;58741;52.672;13.548;2023-03-04T09:10:45;2.10;;;0.93;;
71083;SDS011;58741;52.672;13.548;2023-03-04T09:13:11;1.80;;;0.80;;
71083;SDS011;58741;52.672;13.548;2023-03-04T09:15:43;2.78;;;0.73;;
71083;SDS011;58741;52.672;13.548;2023-03-04T09:18:10;0.70;;;0.70;;
71083;SDS011;58741;52.672;13.548;2023-03-04T09:20:35;2.35;;;1.10;;
71083;SDS011;58741;52.672;13.548;2023-03-04T09:23:01;2.75;;;1.17;;
71083;SDS011;58741;52.672;13.548;2023-03-04T09:25:26;5.10;;;0.88;;
71083;SDS011;58741;52.672;13.548;2023-03-04T09:27:52;1.02;;;0.70;;
71083;SDS011;58741;52.672;13.548;2023-03-04T09:30:18;2.10;;;1.17;;
71083;SDS011;58741;52.672;13.548;2023-03-04T09:32:44;0.90;;;0.70;;
71083;SDS011;58741;52.672;13.548;2023-03-04T09:35:10;1.85;;;0.85;;
71083;SDS011;58741;52.672;13.548;2023-03-04T09:37:35;2.35;;;0.98;;
71083;SDS011;58741;52.672;13.548;2023-03-04T09:40:01;5.55;;;1.40;;
71083;SDS011;58741;52.672;13.548;2023-03-04T09:42:35;6.70;;;0.73;;
71083;SDS011;58741;52.672;13.548;2023-03-04T09:45:06;1.65;;;0.82;;
71083;SDS011;58741;52.672;13.548;2023-03-04T09:47:35;0.85;;;0.70;;
71083;SDS011;58741;52.672;13.548;2023-03-04T09:50:04;1.30;;;0.80;;
71083;SDS011;58741;52.672;13.548;2023-03-04T09:55:30;5.32;;;1.10;;
71083;SDS011;58741;52.672;13.548;2023-03-04T10:03:44;2.25;;;1.00;;
71083;SDS011;58741;52.672;13.548;2023-03-04T10:06:17;0.75;;;0.60;;
71083;SDS011;58741;52.672;13.548;2023-03-04T10:09:06;0.77;;;0.50;;
71083;SDS011;58741;52.672;13.548;2023-03-04T10:11:40;2.42;;;0.90;;
71083;SDS011;58741;52.672;13.548;2023-03-04T10:16:43;3.60;;;0.68;;
71083;SDS011;58741;52.672;13.548;2023-03-04T10:21:42;2.60;;;0.93;;
71083;SDS011;58741;52.672;13.548;2023-03-04T10:24:11;3.00;;;0.93;;
71083;SDS011;58741;52.672;13.548;2023-03-04T10:26:39;4.13;;;1.27;;
71083;SDS011;58741;52.672;13.548;2023-03-04T10:29:10;0.40;;;0.40;;
71083;SDS011;58741;52.672;13.548;2023-03-04T10:31:43;5.85;;;0.85;;
71083;SDS011;58741;52.672;13.548;2023-03-04T10:34:10;2.50;;;1.10;;
71083;SDS011;58741;52.672;13.548;2023-03-04T10:36:38;3.83;;;0.98;;
71083;SDS011;58741;52.672;13.548;2023-03-04T10:39:21;0.80;;;0.60;;
71083;SDS011;58741;52.672;13.548;2023-03-04T10:44:24;4.28;;;1.02;;
71083;SDS011;58741;52.672;13.548;2023-03-04T10:46:52;6.05;;;1.05;;
71083;SDS011;58741;52.672;13.548;2023-03-04T10:49:20;13.98;;;1.80;;
71083;SDS011;58741;52.672;13.548;2023-03-04T10:51:46;1.17;;;0.68;;
71083;SDS011;58741;52.672;13.548;2023-03-04T10:54:30;4.05;;;0.88;;
71083;SDS011;58741;52.672;13.548;2023-03-04T10:57:05;1.73;;;0.70;;
71083;SDS011;58741;52.672;13.548;2023-03-04T11:00:29;1.98;;;0.98;;
71083;SDS011;58741;52.672;13.548;2023-03-04T11:06:09;7.80;;;1.08;;
71083;SDS011;58741;52.672;13.548;2023-03-04T11:08:41;2.17;;;0.90;;
71083;SDS011;58741;52.672;13.548;2023-03-04T11:13:59;3.55;;;1.38;;
71083;SDS011;58741;52.672;13.548;2023-03-04T11:16:29;2.08;;;0.82;;
71083;SDS011;58741;52.672;13.548;2023-03-04T11:19:03;5.43;;;1.20;;
71083;SDS011;58741;52.672;13.548;2023-03-04T11:21:36;2.53;;;0.77;;
71083;SDS011;58741;52.672;13.548;2023-03-04T11:26:37;3.90;;;1.33;;
71083;SDS011;58741;52.672;13.548;2023-03-04T11:29:09;1.98;;;0.85;;
71083;SDS011;58741;52.672;13.548;2023-03-04T11:31:43;1.17;;;0.75;;
71083;SDS011;58741;52.672;13.548;2023-03-04T11:36:56;2.58;;;0.63;;
71083;SDS011;58741;52.672;13.548;2023-03-04T11:44:44;2.72;;;0.63;;
71083;SDS011;58741;52.672;13.548;2023-03-04T12:01:13;2.63;;;0.55;;
71083;SDS011;58741;52.672;13.548;2023-03-04T12:04:03;8.75;;;0.88;;
71083;SDS011;58741;52.672;13.548;2023-03-04T12:06:35;2.00;;;1.33;;
71083;SDS011;58741;52.672;13.548;2023-03-04T12:09:15;2.28;;;1.15;;
71083;SDS011;58741;52.672;13.548;2023-03-04T12:20:51;2.55;;;0.95;;
71083;SDS011;58741;52.672;13.548;2023-03-04T12:23:44;0.70;;;0.50;;
71083;SDS011;58741;52.672;13.548;2023-03-04T12:26:41;9.95;;;1.25;;
71083;SDS011;58741;52.672;13.548;2023-03-04T12:29:22;2.00;;;0.70;;
71083;SDS011;58741;52.672;13.548;2023-03-04T12:40:14;5.68;;;1.10;;
71083;SDS011;58741;52.672;13.548;2023-03-04T12:45:24;3.05;;;0.52;;
71083;SDS011;58741;52.672;13.548;2023-03-04T12:50:41;2.85;;;0.57;;
71083;SDS011;58741;52.672;13.548;2023-03-04T12:56:01;0.30;;;0.30;;
71083;SDS011;58741;52.672;13.548;2023-03-04T12:58:29;5.78;;;0.95;;
71083;SDS011;58741;52.672;13.548;2023-03-04T13:06:33;1.10;;;0.93;;
71083;SDS011;58741;52.672;13.548;2023-03-04T13:09:04;4.28;;;0.95;;
71083;SDS011;58741;52.672;13.548;2023-03-04T13:11:50;2.58;;;0.88;;
71083;SDS011;58741;52.672;13.548;2023-03-04T13:30:38;5.78;;;1.15;;
71083;SDS011;58741;52.672;13.548;2023-03-04T13:44:05;2.53;;;1.13;;
71083;SDS011;58741;52.672;13.548;2023-03-04T13:47:08;5.68;;;1.20;;
71083;SDS011;58741;52.672;13.548;2023-03-04T13:49:38;2.47;;;1.00;;
71083;SDS011;58741;52.672;13.548;2023-03-04T13:57:58;0.95;;;0.55;;
71083;SDS011;58741;52.672;13.548;2023-03-04T14:00:24;3.38;;;0.75;;
71083;SDS011;58741;52.672;13.548;2023-03-04T14:02:51;2.85;;;1.10;;
71083;SDS011;58741;52.672;13.548;2023-03-04T14:05:16;3.42;;;0.75;;
71083;SDS011;58741;52.672;13.548;2023-03-04T14:07:42;5.82;;;1.55;;
71083;SDS011;58741;52.672;13.548;2023-03-04T14:12:38;2.78;;;0.80;;
71083;SDS011;58741;52.672;13.548;2023-03-04T14:17:37;2.65;;;1.00;;
71083;SDS011;58741;52.672;13.548;2023-03-04T14:20:05;5.25;;;1.17;;
71083;SDS011;58741;52.672;13.548;2023-03-04T14:22:48;1.58;;;0.77;;
71083;SDS011;58741;52.672;13.548;2023-03-04T14:27:42;3.20;;;1.40;;
71083;SDS011;58741;52.672;13.548;2023-03-04T14:30:26;7.93;;;1.58;;
71083;SDS011;58741;52.672;13.548;2023-03-04T14:32:53;1.95;;;1.33;;
71083;SDS011;58741;52.672;13.548;2023-03-04T14:35:26;3.95;;;1.85;;
71083;SDS011;58741;52.672;13.548;2023-03-04T14:46:06;4.30;;;1.35;;
71083;SDS011;58741;52.672;13.548;2023-03-04T14:48:36;4.68;;;1.73;;
71083;SDS011;58741;52.672;13.548;2023-03-04T14:51:01;2.28;;;1.08;;
71083;SDS011;58741;52.672;13.548;2023-03-04T14:53:31;2.58;;;1.33;;
71083;SDS011;58741;52.672;13.548;2023-03-04T14:56:05;8.18;;;1.15;;
71083;SDS011;58741;52.672;13.548;2023-03-04T14:58:36;2.47;;;1.30;;
71083;SDS011;58741;52.672;13.548;2023-03-04T15:03:54;1.65;;;1.35;;
71083;SDS011;58741;52.672;13.548;2023-03-04T15:06:21;6.05;;;1.60;;
71083;SDS011;58741;52.672;13.548;2023-03-04T15:09:02;1.27;;;0.88;;
71083;SDS011;58741;52.672;13.548;2023-03-04T15:11:47;6.15;;;1.00;;
71083;SDS011;58741;52.672;13.548;2023-03-04T15:14:44;2.97;;;1.33;;
71083;SDS011;58741;52.672;13.548;2023-03-04T15:22:35;4.20;;;1.33;;
71083;SDS011;58741;52.672;13.548;2023-03-04T15:25:20;2.13;;;0.90;;
71083;SDS011;58741;52.672;13.548;2023-03-04T15:27:47;2.67;;;0.82;;
71083;SDS011;58741;52.672;13.548;2023-03-04T15:30:14;0.68;;;0.68;;
71083;SDS011;58741;52.672;13.548;2023-03-04T15:32:45;0.55;;;0.50;;
71083;SDS011;58741;52.672;13.548;2023-03-04T15:35:11;1.90;;;0.95;;
71083;SDS011;58741;52.672;13.548;2023-03-04T15:37:38;1.95;;;0.52;;
71083;SDS011;58741;52.672;13.548;2023-03-04T15:40:05;1.83;;;0.73;;
71083;SDS011;58741;52.672;13.548;2023-03-04T15:42:47;1.85;;;0.90;;
71083;SDS011;58741;52.672;13.548;2023-03-04T15:45:23;1.77;;;1.38;;
71083;SDS011;58741;52.672;13.548;2023-03-04T15:47:54;2.17;;;0.70;;
71083;SDS011;58741;52.672;13.548;2023-03-04T15:50:21;1.90;;;0.90;;
71083;SDS011;58741;52.672;13.548;2023-03-04T15:52:50;2.22;;;0.80;;
71083;SDS011;58741;52.672;13.548;2023-03-04T15:55:18;2.92;;;0.80;;
71083;SDS011;58741;52.672;13.548;2023-03-04T15:57:47;4.97;;;1.27;;
71083;SDS011;58741;52.672;13.548;2023-03-04T16:00:17;2.55;;;1.08;;
71083;SDS011;58741;52.672;13.548;2023-03-04T16:02:43;2.47;;;0.98;;
71083;SDS011;58741;52.672;13.548;2023-03-04T16:05:09;1.85;;;1.02;;
71083;SDS011;58741;52.672;13.548;2023-03-04T16:07:34;3.55;;;1.70;;
71083;SDS011;58741;52.672;13.548;2023-03-04T16:10:06;3.60;;;1.05;;
71083;SDS011;58741;52.672;13.548;2023-03-04T16:12:39;3.40;;;1.25;;
71083;SDS011;58741;52.672;13.548;2023-03-04T16:15:09;1.15;;;0.70;;
71083;SDS011;58741;52.672;13.548;2023-03-04T16:17:42;2.17;;;0.73;;
71083;SDS011;58741;52.672;13.548;2023-03-04T16:20:12;4.93;;;1.67;;
71083;SDS011;58741;52.672;13.548;2023-03-04T16:22:40;3.03;;;1.27;;
71083;SDS011;58741;52.672;13.548;2023-03-04T16:25:10;3.33;;;1.17;;
71083;SDS011;58741;52.672;13.548;2023-03-04T16:27:38;4.05;;;1.17;;
71083;SDS011;58741;52.672;13.548;2023-03-04T16:30:05;5.50;;;1.27;;
71083;SDS011;58741;52.672;13.548;2023-03-04T16:32:35;7.00;;;0.90;;
71083;SDS011;58741;52.672;13.548;2023-03-04T16:35:01;5.70;;;1.02;;
71083;SDS011;58741;52.672;13.548;2023-03-04T16:37:27;2.45;;;0.93;;
71083;SDS011;58741;52.672;13.548;2023-03-04T16:39:52;4.57;;;1.23;;
71083;SDS011;58741;52.672;13.548;2023-03-04T16:42:18;6.15;;;1.90;;
71083;SDS011;58741;52.672;13.548;2023-03-04T16:44:46;9.10;;;1.40;;
71083;SDS011;58741;52.672;13.548;2023-03-04T16:47:12;1.80;;;1.08;;
71083;SDS011;58741;52.672;13.548;2023-03-04T16:49:38;2.53;;;1.38;;
71083;SDS011;58741;52.672;13.548;2023-03-04T16:52:04;3.33;;;1.45;;
71083;SDS011;58741;52.672;13.548;2023-03-04T16:54:38;1.90;;;1.05;;
71083;SDS011;58741;52.672;13.548;2023-03-04T16:57:04;2.05;;;1.10;;
71083;SDS011;58741;52.672;13.548;2023-03-04T16:59:30;1.92;;;1.10;;
71083;SDS011;58741;52.672;13.548;2023-03-04T17:01:56;2.78;;;1.10;;